METAR Data
IDs: Format: Raw Decoded Include TAF

Data at: 0925 UTC 26 May 2019

KMLB 260853Z AUTO 12005KT 10SM SCT017 26/22 A3010 RMK AO2 SLP192 T02560217 53001

KMLB 260700Z 2607/2706 12008KT P6SM SCT020
  TEMPO 2607/2609 BKN018
  FM261500 10010KT P6SM FEW030
  FM261800 09013KT P6SM SCT030
  FM270200 00000KT P6SM SKC



KTIX 260533Z 2606/2706 09005KT P6SM SKC
  FM261500 12009KT P6SM FEW030
  FM270200 00000KT P6SM SKC


KCOF 260856Z AUTO 14005KT 10SM CLR 25/23 A3010 RMK AO2 SLP197 T02450234 55003 $
No TAF found for KCOF

KVRB 260853Z AUTO 09005KT 10SM CLR 24/22 A3010 RMK AO2 SLP191 T02440217 55004 $

KVRB 260702Z 2607/2706 11008KT P6SM FEW020
  TEMPO 2608/2610 BKN020
  FM261500 09011KT P6SM FEW030
  FM270200 00000KT P6SM SKC